createdAt,value
2023-08-20T00:01:59.559Z,20.30
2023-08-20T00:04:27.953Z,20.30
2023-08-20T00:06:55.088Z,20.28
2023-08-20T00:09:21.778Z,20.27
2023-08-20T00:11:48.384Z,20.26
2023-08-20T00:14:18.321Z,20.22
2023-08-20T00:16:45.590Z,20.21
2023-08-20T00:19:14.961Z,20.20
2023-08-20T00:21:45.675Z,20.19
2023-08-20T00:24:13.377Z,20.16
2023-08-20T00:26:42.637Z,20.15
2023-08-20T00:29:13.813Z,20.15
2023-08-20T00:31:46.104Z,20.13
2023-08-20T00:34:12.741Z,20.11
2023-08-20T00:36:41.463Z,20.10
2023-08-20T00:39:08.635Z,20.08
2023-08-20T00:41:35.292Z,20.06
2023-08-20T00:44:01.888Z,20.05
2023-08-20T00:46:28.564Z,20.03
2023-08-20T00:48:55.203Z,20.02
2023-08-20T00:51:22.943Z,20.02
2023-08-20T00:53:49.895Z,20.01
2023-08-20T00:56:21.487Z,20.00
2023-08-20T00:58:48.288Z,19.99
2023-08-20T01:01:14.983Z,19.99
2023-08-20T01:03:41.686Z,19.98
2023-08-20T01:06:26.690Z,19.98
2023-08-20T01:09:03.892Z,19.99
2023-08-20T01:11:38.409Z,19.98
2023-08-20T01:14:17.953Z,19.96
2023-08-20T01:16:46.085Z,19.95
2023-08-20T01:19:20.313Z,19.94
2023-08-20T01:22:14.826Z,19.93
2023-08-20T01:25:09.272Z,19.93
2023-08-20T01:27:59.119Z,19.93
2023-08-20T01:30:26.754Z,19.91
2023-08-20T01:32:59.416Z,19.90
2023-08-20T01:35:27.574Z,19.90
2023-08-20T01:37:54.217Z,19.90
2023-08-20T01:40:21.129Z,19.89
2023-08-20T01:42:52.262Z,19.89
2023-08-20T01:45:22.780Z,19.86
2023-08-20T01:47:49.475Z,19.85
2023-08-20T01:50:18.858Z,19.85
2023-08-20T01:52:45.554Z,19.83
2023-08-20T01:55:14.742Z,19.83
2023-08-20T01:57:41.586Z,19.81
2023-08-20T02:00:11.180Z,19.82
2023-08-20T02:02:40.116Z,19.82
2023-08-20T02:05:11.873Z,19.82
2023-08-20T02:07:38.580Z,19.81
2023-08-20T02:10:05.876Z,19.81
2023-08-20T02:12:32.524Z,19.80
2023-08-20T02:15:01.400Z,19.80
2023-08-20T02:17:28.038Z,19.78
2023-08-20T02:19:56.741Z,19.77
2023-08-20T02:22:25.627Z,19.76
2023-08-20T02:24:52.238Z,19.75
2023-08-20T02:27:18.828Z,19.74
2023-08-20T02:29:47.971Z,19.72
2023-08-20T02:32:14.620Z,19.72
2023-08-20T02:34:43.567Z,19.71
2023-08-20T02:37:12.672Z,19.70
2023-08-20T02:39:39.275Z,19.69
2023-08-20T02:42:08.341Z,19.67
2023-08-20T02:44:35.001Z,19.67
2023-08-20T02:47:01.653Z,19.67
2023-08-20T02:49:28.260Z,19.66
2023-08-20T02:51:54.906Z,19.65
2023-08-20T02:54:23.648Z,19.63
2023-08-20T02:56:55.038Z,19.63
2023-08-20T02:59:21.674Z,19.61
2023-08-20T03:01:48.368Z,19.59
2023-08-20T03:04:15.081Z,19.59
2023-08-20T03:06:45.139Z,19.58
2023-08-20T03:09:14.017Z,19.58
2023-08-20T03:11:45.172Z,19.58
2023-08-20T03:14:11.767Z,19.57
2023-08-20T03:16:38.354Z,19.57
2023-08-20T03:19:05.351Z,19.57
2023-08-20T03:21:32.220Z,19.56
2023-08-20T03:24:01.062Z,19.55
2023-08-20T03:26:29.898Z,19.55
2023-08-20T03:28:56.700Z,19.55
2023-08-20T03:31:23.369Z,19.55
2023-08-20T03:33:50.317Z,19.53
2023-08-20T03:36:16.993Z,19.52
2023-08-20T03:38:43.702Z,19.53
2023-08-20T03:41:10.332Z,19.51
2023-08-20T03:43:36.982Z,19.50
2023-08-20T03:46:03.838Z,19.50
2023-08-20T03:48:32.980Z,19.49
2023-08-20T03:50:59.644Z,19.48
2023-08-20T03:53:26.372Z,19.47
2023-08-20T03:55:53.007Z,19.45
2023-08-20T03:58:19.683Z,19.45
2023-08-20T04:00:46.337Z,19.43
2023-08-20T04:03:13.104Z,19.41
2023-08-20T04:05:40.129Z,19.41
2023-08-20T04:08:07.503Z,19.40
2023-08-20T04:10:36.753Z,19.39
2023-08-20T04:13:06.459Z,19.38
2023-08-20T04:15:33.102Z,19.37
2023-08-20T04:17:59.804Z,19.36
2023-08-20T04:20:26.478Z,19.34
2023-08-20T04:22:57.739Z,19.32
2023-08-20T04:25:24.440Z,19.31
2023-08-20T04:27:51.067Z,19.30
2023-08-20T04:30:17.822Z,19.28
2023-08-20T04:32:46.739Z,19.28
2023-08-20T04:35:13.384Z,19.26
2023-08-20T04:37:42.238Z,19.26
2023-08-20T04:40:09.319Z,19.25
2023-08-20T04:42:35.955Z,19.23
2023-08-20T04:45:02.637Z,19.22
2023-08-20T04:47:32.019Z,19.20
2023-08-20T04:49:59.069Z,19.20
2023-08-20T04:52:25.698Z,19.20
2023-08-20T04:54:52.310Z,19.20
2023-08-20T04:57:18.984Z,19.21
2023-08-20T04:59:46.540Z,19.22
2023-08-20T05:02:13.721Z,19.21
2023-08-20T05:04:45.644Z,19.21
2023-08-20T05:07:12.301Z,19.21
2023-08-20T05:09:38.932Z,19.20
2023-08-20T05:12:05.848Z,19.19
2023-08-20T05:14:35.052Z,19.18
2023-08-20T05:17:01.938Z,19.17
2023-08-20T05:19:28.523Z,19.17
2023-08-20T05:21:59.875Z,19.16
2023-08-20T05:24:27.128Z,19.16
2023-08-20T05:27:08.081Z,19.16
2023-08-20T05:29:35.000Z,19.16
2023-08-20T05:32:01.667Z,19.15
2023-08-20T05:34:28.351Z,19.15
2023-08-20T05:36:59.713Z,19.16
2023-08-20T05:39:29.242Z,19.16
2023-08-20T05:41:58.585Z,19.16
2023-08-20T05:44:25.220Z,19.15
2023-08-20T05:46:54.274Z,19.15
2023-08-20T05:49:20.895Z,19.14
2023-08-20T05:51:47.581Z,19.14
2023-08-20T05:54:14.188Z,19.13
2023-08-20T05:56:43.055Z,19.13
2023-08-20T05:59:12.011Z,19.15
2023-08-20T06:01:41.202Z,19.17
2023-08-20T06:04:07.871Z,19.18
2023-08-20T06:06:34.577Z,19.21
2023-08-20T06:09:08.381Z,19.25
2023-08-20T06:11:36.676Z,19.28
2023-08-20T06:14:04.035Z,19.32
2023-08-20T06:16:31.156Z,19.36
2023-08-20T06:19:00.474Z,19.39
2023-08-20T06:21:28.570Z,19.39
2023-08-20T06:23:58.143Z,19.40
2023-08-20T06:26:26.993Z,19.39
2023-08-20T06:28:53.620Z,19.39
2023-08-20T06:31:22.495Z,19.41
2023-08-20T06:33:49.220Z,19.44
2023-08-20T06:36:16.984Z,19.46
2023-08-20T06:38:45.009Z,19.46
2023-08-20T06:41:11.682Z,19.46
2023-08-20T06:43:38.292Z,19.45
2023-08-20T06:46:07.804Z,19.44
2023-08-20T06:48:34.481Z,19.46
2023-08-20T06:51:09.653Z,19.45
2023-08-20T06:53:36.242Z,19.47
2023-08-20T06:56:02.839Z,19.50
2023-08-20T06:58:29.435Z,19.54
2023-08-20T07:01:08.175Z,19.54
2023-08-20T07:03:39.507Z,19.54
2023-08-20T07:06:06.822Z,19.54
2023-08-20T07:08:36.631Z,19.52
2023-08-20T07:11:06.264Z,19.52
2023-08-20T07:13:32.963Z,19.52
2023-08-20T07:16:02.146Z,19.52
2023-08-20T07:18:29.759Z,19.52
2023-08-20T07:20:57.545Z,19.55
2023-08-20T07:23:24.451Z,19.54
2023-08-20T07:26:04.767Z,19.54
2023-08-20T07:28:51.385Z,19.55
2023-08-20T07:31:20.444Z,19.55
2023-08-20T07:33:48.931Z,19.56
2023-08-20T07:36:16.227Z,19.57
2023-08-20T07:38:44.542Z,19.58
2023-08-20T07:41:12.397Z,19.58
2023-08-20T07:43:40.810Z,19.56
2023-08-20T07:46:08.767Z,19.57
2023-08-20T07:48:38.970Z,19.57
2023-08-20T07:51:06.236Z,19.58
2023-08-20T07:53:34.118Z,19.59
2023-08-20T07:56:02.085Z,19.60
2023-08-20T07:58:31.800Z,19.62
2023-08-20T08:00:59.188Z,19.62
2023-08-20T08:03:27.973Z,19.64
2023-08-20T08:05:55.933Z,19.65
2023-08-20T08:08:25.497Z,19.64
2023-08-20T08:10:54.676Z,19.66
2023-08-20T08:13:26.753Z,19.68
2023-08-20T08:15:53.510Z,19.71
2023-08-20T08:18:21.316Z,19.73
2023-08-20T08:20:50.824Z,19.77
2023-08-20T08:23:19.960Z,19.82
2023-08-20T08:25:49.339Z,19.85
2023-08-20T08:28:15.998Z,19.90
2023-08-20T08:30:42.676Z,19.92
2023-08-20T08:33:12.442Z,19.99
2023-08-20T08:35:39.071Z,20.02
2023-08-20T08:38:08.301Z,20.05
2023-08-20T08:40:38.138Z,20.09
2023-08-20T08:43:07.291Z,20.14
2023-08-20T08:45:35.823Z,20.18
2023-08-20T08:48:03.733Z,20.23
2023-08-20T08:50:31.830Z,20.30
2023-08-20T08:52:59.303Z,20.34
2023-08-20T08:55:26.684Z,20.40
2023-08-20T08:57:53.498Z,20.44
2023-08-20T09:00:20.202Z,20.48
2023-08-20T09:02:47.254Z,20.51
2023-08-20T09:05:19.495Z,20.54
2023-08-20T09:07:46.199Z,20.56
2023-08-20T09:10:15.305Z,20.57
2023-08-20T09:12:42.163Z,20.56
2023-08-20T09:15:13.115Z,20.56
2023-08-20T09:17:42.697Z,20.56
2023-08-20T09:20:12.069Z,20.59
2023-08-20T09:22:49.519Z,20.60
2023-08-20T09:25:18.089Z,20.59
2023-08-20T09:27:44.731Z,20.60
2023-08-20T09:30:21.780Z,20.61
2023-08-20T09:33:09.511Z,20.60
2023-08-20T09:35:38.715Z,20.58
2023-08-20T09:38:05.950Z,20.55
2023-08-20T09:40:33.108Z,20.56
2023-08-20T09:43:02.366Z,20.62
2023-08-20T09:45:30.127Z,20.70
2023-08-20T09:47:59.461Z,20.78
2023-08-20T09:50:27.280Z,20.87
2023-08-20T09:53:07.601Z,20.90
2023-08-20T09:55:36.861Z,20.91
2023-08-20T09:58:04.507Z,20.93
2023-08-20T10:00:31.838Z,20.97
2023-08-20T10:03:02.156Z,21.02
2023-08-20T10:05:29.378Z,21.02
2023-08-20T10:07:57.331Z,21.02
2023-08-20T10:10:23.986Z,20.96
2023-08-20T10:12:50.799Z,20.93
2023-08-20T10:15:20.135Z,20.92
2023-08-20T10:17:49.035Z,20.89
2023-08-20T10:20:19.272Z,20.90
2023-08-20T10:22:50.237Z,20.87
2023-08-20T10:25:26.543Z,20.87
2023-08-20T10:27:54.767Z,20.86
2023-08-20T10:30:26.711Z,20.87
2023-08-20T10:32:55.868Z,20.86
2023-08-20T10:35:29.647Z,20.87
2023-08-20T10:38:03.913Z,20.92
2023-08-20T10:40:57.585Z,20.93
2023-08-20T10:43:30.670Z,20.94
2023-08-20T10:46:09.609Z,20.96
2023-08-20T10:48:41.532Z,20.93
2023-08-20T10:51:13.971Z,20.92
2023-08-20T10:53:42.860Z,20.89
2023-08-20T10:56:12.261Z,20.88
2023-08-20T10:58:44.000Z,20.90
2023-08-20T11:01:19.288Z,20.95
2023-08-20T11:03:49.803Z,20.99
2023-08-20T11:06:19.676Z,21.02
2023-08-20T11:08:46.808Z,21.08
2023-08-20T11:11:14.161Z,21.12
2023-08-20T11:13:41.311Z,21.21
2023-08-20T11:16:10.892Z,21.23
2023-08-20T11:18:37.722Z,21.26
2023-08-20T11:21:06.951Z,21.31
2023-08-20T11:23:40.930Z,21.33
2023-08-20T11:26:11.362Z,21.38
2023-08-20T11:28:38.060Z,21.46
2023-08-20T11:31:04.923Z,21.49
2023-08-20T11:33:33.795Z,21.57
2023-08-20T11:36:07.036Z,21.64
2023-08-20T11:38:34.784Z,21.74
2023-08-20T11:41:01.446Z,21.82
2023-08-20T11:43:31.343Z,21.89
2023-08-20T11:45:58.024Z,21.97
2023-08-20T11:48:24.669Z,22.11
2023-08-20T11:50:51.981Z,22.20
2023-08-20T11:53:27.294Z,22.30
2023-08-20T11:55:54.175Z,22.39
2023-08-20T11:58:22.652Z,22.50
2023-08-20T12:00:52.177Z,22.61
2023-08-20T12:03:23.643Z,22.74
2023-08-20T12:05:53.346Z,22.88
2023-08-20T12:08:20.012Z,23.05
2023-08-20T12:10:46.693Z,23.20
2023-08-20T12:13:13.586Z,23.35
2023-08-20T12:15:40.228Z,23.50
2023-08-20T12:18:08.026Z,23.62
2023-08-20T12:20:40.539Z,23.75
2023-08-20T12:23:08.121Z,23.94
2023-08-20T12:25:36.848Z,24.10
2023-08-20T12:28:07.280Z,24.22
2023-08-20T12:30:38.612Z,24.38
2023-08-20T12:33:09.012Z,24.55
2023-08-20T12:35:35.972Z,24.65
2023-08-20T12:38:02.687Z,24.78
2023-08-20T12:40:35.529Z,24.89
2023-08-20T12:43:07.198Z,25.04
2023-08-20T12:45:36.402Z,25.16
2023-08-20T12:48:04.046Z,25.30
2023-08-20T12:50:31.005Z,25.44
2023-08-20T12:53:00.419Z,25.59
2023-08-20T12:55:27.167Z,25.74
2023-08-20T12:58:01.967Z,25.89
2023-08-20T13:00:28.823Z,26.01
2023-08-20T13:02:56.521Z,26.13
2023-08-20T13:05:24.631Z,26.27
2023-08-20T13:07:53.823Z,26.37
2023-08-20T13:10:21.179Z,26.51
2023-08-20T13:13:01.093Z,26.66
2023-08-20T13:15:28.832Z,26.77
2023-08-20T13:17:56.695Z,26.89
2023-08-20T13:20:26.373Z,27.02
2023-08-20T13:22:53.428Z,27.13
2023-08-20T13:25:22.682Z,27.24
2023-08-20T13:27:49.677Z,27.37
2023-08-20T13:30:20.499Z,27.48
2023-08-20T13:32:47.277Z,27.61
2023-08-20T13:35:15.733Z,27.69
2023-08-20T13:37:42.541Z,27.78
2023-08-20T13:40:10.968Z,27.88
2023-08-20T13:42:38.261Z,28.00
2023-08-20T13:45:05.666Z,28.16
2023-08-20T13:47:32.314Z,28.31
2023-08-20T13:50:01.921Z,28.40
2023-08-20T13:52:28.614Z,28.49
2023-08-20T13:54:55.258Z,28.57
2023-08-20T13:57:21.877Z,28.67
2023-08-20T13:59:50.913Z,28.71
2023-08-20T14:02:17.576Z,28.74
2023-08-20T14:04:44.236Z,28.86
2023-08-20T14:07:10.845Z,28.97
2023-08-20T14:09:37.506Z,29.08
2023-08-20T14:12:04.385Z,29.15
2023-08-20T14:14:33.569Z,29.25
2023-08-20T14:17:00.221Z,29.32
2023-08-20T14:19:26.905Z,29.44
2023-08-20T14:21:53.820Z,29.56
2023-08-20T14:24:20.492Z,29.62
2023-08-20T14:26:47.132Z,29.68
2023-08-20T14:29:13.772Z,29.73
2023-08-20T14:31:40.430Z,29.76
2023-08-20T14:34:09.362Z,29.82
2023-08-20T14:36:35.998Z,29.91
2023-08-20T14:39:07.115Z,30.02
2023-08-20T14:41:35.982Z,30.10
2023-08-20T14:44:03.558Z,30.00
2023-08-20T14:46:30.273Z,29.79
2023-08-20T14:48:56.941Z,29.66
2023-08-20T14:51:26.617Z,29.46
2023-08-20T14:53:53.248Z,29.21
2023-08-20T14:56:19.931Z,29.09
2023-08-20T14:58:46.583Z,29.03
2023-08-20T15:01:19.314Z,29.00
2023-08-20T15:03:45.988Z,28.91
2023-08-20T15:06:15.728Z,28.86
2023-08-20T15:08:47.210Z,28.75
2023-08-20T15:11:13.845Z,28.71
2023-08-20T15:13:40.535Z,28.78
2023-08-20T15:16:07.211Z,28.80
2023-08-20T15:18:33.872Z,28.82
2023-08-20T15:21:01.413Z,28.86
2023-08-20T15:23:29.164Z,28.80
2023-08-20T15:25:57.170Z,28.75
2023-08-20T15:28:26.428Z,28.82
2023-08-20T15:30:55.331Z,28.78
2023-08-20T15:33:22.460Z,28.78
2023-08-20T15:35:49.327Z,28.72
2023-08-20T15:38:16.608Z,28.77
2023-08-20T15:40:43.434Z,28.80
2023-08-20T15:43:10.088Z,28.72
2023-08-20T15:45:36.742Z,28.62
2023-08-20T15:48:06.294Z,28.59
2023-08-20T15:50:32.951Z,28.58
2023-08-20T15:52:59.632Z,28.53
2023-08-20T15:55:26.501Z,28.48
2023-08-20T15:57:55.646Z,28.45
2023-08-20T16:00:22.401Z,28.53
2023-08-20T16:02:49.188Z,28.45
2023-08-20T16:05:16.092Z,28.42
2023-08-20T16:07:43.096Z,28.49
2023-08-20T16:10:11.630Z,28.50
2023-08-20T16:12:41.276Z,28.65
2023-08-20T16:15:08.802Z,28.67
2023-08-20T16:17:37.869Z,28.58
2023-08-20T16:20:08.286Z,28.45
2023-08-20T16:22:39.682Z,28.45
2023-08-20T16:25:09.084Z,28.58
2023-08-20T16:27:39.644Z,28.51
2023-08-20T16:30:08.837Z,28.40
2023-08-20T16:32:35.558Z,28.36
2023-08-20T16:35:02.307Z,28.32
2023-08-20T16:37:28.973Z,28.15
2023-08-20T16:39:58.148Z,28.17
2023-08-20T16:42:24.761Z,28.23
2023-08-20T16:44:51.371Z,28.17
2023-08-20T16:47:20.195Z,28.17
2023-08-20T16:49:49.895Z,28.09
2023-08-20T16:52:19.043Z,28.18
2023-08-20T16:54:48.130Z,28.18
2023-08-20T16:57:17.578Z,28.24
2023-08-20T16:59:44.225Z,28.15
2023-08-20T17:02:13.125Z,28.08
2023-08-20T17:04:42.743Z,27.97
2023-08-20T17:07:09.372Z,27.98
2023-08-20T17:09:36.327Z,27.97
2023-08-20T17:12:03.961Z,27.96
2023-08-20T17:14:30.996Z,27.97
2023-08-20T17:16:58.240Z,27.93
2023-08-20T17:19:25.090Z,27.88
2023-08-20T17:21:52.933Z,27.76
2023-08-20T17:24:24.622Z,27.59
2023-08-20T17:26:51.224Z,27.52
2023-08-20T17:29:17.852Z,27.44
2023-08-20T17:31:49.216Z,27.37
2023-08-20T17:34:18.199Z,27.26
2023-08-20T17:36:44.853Z,27.25
2023-08-20T17:39:11.458Z,27.04
2023-08-20T17:41:40.322Z,26.87
2023-08-20T17:44:06.992Z,26.75
2023-08-20T17:46:46.911Z,26.75
2023-08-20T17:49:14.478Z,26.71
2023-08-20T17:51:44.725Z,26.67
2023-08-20T17:54:11.560Z,26.63
2023-08-20T17:56:39.995Z,26.41
2023-08-20T17:59:08.233Z,26.27
2023-08-20T18:01:34.990Z,26.09
2023-08-20T18:04:01.739Z,25.95
2023-08-20T18:06:31.393Z,25.79
2023-08-20T18:08:58.070Z,25.72
2023-08-20T18:11:24.756Z,25.77
2023-08-20T18:13:51.354Z,25.67
2023-08-20T18:16:20.423Z,25.54
2023-08-20T18:18:47.139Z,25.42
2023-08-20T18:21:13.872Z,25.25
2023-08-20T18:23:40.564Z,25.11
2023-08-20T18:26:10.057Z,25.00
2023-08-20T18:28:39.093Z,24.84
2023-08-20T18:31:09.957Z,24.77
2023-08-20T18:33:39.061Z,24.65
2023-08-20T18:36:06.045Z,24.53
2023-08-20T18:38:35.187Z,24.58
2023-08-20T18:41:02.943Z,24.50
2023-08-20T18:43:30.157Z,24.48
2023-08-20T18:45:56.934Z,24.39
2023-08-20T18:48:24.437Z,24.35
2023-08-20T18:50:51.077Z,24.28
2023-08-20T18:53:17.723Z,24.18
2023-08-20T18:55:46.553Z,24.09
2023-08-20T18:58:13.233Z,24.03
2023-08-20T19:00:39.844Z,23.90
2023-08-20T19:03:08.242Z,23.99
2023-08-20T19:05:37.305Z,24.14
2023-08-20T19:08:04.371Z,24.21
2023-08-20T19:10:31.226Z,24.20
2023-08-20T19:13:00.906Z,24.29
2023-08-20T19:15:27.591Z,24.32
2023-08-20T19:17:56.591Z,24.38
2023-08-20T19:20:25.507Z,24.38
2023-08-20T19:22:52.154Z,24.08
2023-08-20T19:25:21.036Z,23.79
2023-08-20T19:27:47.679Z,23.59
2023-08-20T19:30:14.362Z,23.49
2023-08-20T19:32:41.349Z,23.38
2023-08-20T19:35:08.820Z,23.31
2023-08-20T19:37:38.814Z,23.23
2023-08-20T19:40:10.088Z,23.25
2023-08-20T19:42:39.305Z,23.14
2023-08-20T19:45:09.291Z,23.08
2023-08-20T19:47:36.016Z,23.06
2023-08-20T19:50:04.807Z,23.01
2023-08-20T19:52:31.445Z,22.99
2023-08-20T19:54:58.031Z,23.01
2023-08-20T19:57:26.869Z,22.83
2023-08-20T19:59:53.474Z,22.70
2023-08-20T20:02:22.365Z,22.56
2023-08-20T20:04:49.104Z,22.53
2023-08-20T20:07:22.740Z,22.58
2023-08-20T20:09:50.187Z,22.63
2023-08-20T20:12:18.945Z,22.54
2023-08-20T20:14:45.773Z,22.45
2023-08-20T20:17:17.305Z,22.33
2023-08-20T20:19:48.224Z,22.27
2023-08-20T20:22:15.154Z,22.15
2023-08-20T20:24:42.316Z,22.10
2023-08-20T20:27:09.590Z,22.05
2023-08-20T20:29:38.904Z,22.08
2023-08-20T20:32:08.109Z,22.07
2023-08-20T20:34:34.806Z,22.01
2023-08-20T20:37:01.568Z,21.98
2023-08-20T20:39:28.210Z,21.97
2023-08-20T20:41:57.347Z,21.91
2023-08-20T20:44:24.037Z,21.84
2023-08-20T20:46:50.766Z,21.72
2023-08-20T20:49:17.580Z,21.68
2023-08-20T20:51:44.248Z,21.63
2023-08-20T20:54:10.853Z,21.55
2023-08-20T20:56:39.785Z,21.51
2023-08-20T20:59:06.453Z,21.46
2023-08-20T21:01:36.326Z,21.48
2023-08-20T21:04:03.052Z,21.47
2023-08-20T21:06:32.286Z,21.48
2023-08-20T21:09:01.904Z,21.46
2023-08-20T21:11:31.113Z,21.38
2023-08-20T21:13:57.743Z,21.37
2023-08-20T21:16:24.470Z,21.33
2023-08-20T21:18:53.519Z,21.31
2023-08-20T21:21:20.174Z,21.28
2023-08-20T21:23:46.799Z,21.27
2023-08-20T21:26:15.853Z,21.26
2023-08-20T21:28:42.487Z,21.20
2023-08-20T21:31:09.245Z,21.14
2023-08-20T21:33:35.896Z,21.15
2023-08-20T21:36:02.502Z,21.13
2023-08-20T21:38:29.160Z,21.08
2023-08-20T21:40:55.785Z,20.94
2023-08-20T21:43:25.390Z,20.83
2023-08-20T21:45:54.406Z,20.77
2023-08-20T21:48:23.482Z,20.74
2023-08-20T21:50:53.132Z,20.77
2023-08-20T21:53:24.701Z,20.80
2023-08-20T21:55:57.853Z,20.76
2023-08-20T21:58:24.680Z,20.74
2023-08-20T22:00:53.836Z,20.71
2023-08-20T22:03:20.560Z,20.65
2023-08-20T22:05:49.995Z,20.64
2023-08-20T22:08:18.368Z,20.61
2023-08-20T22:10:45.023Z,20.63
2023-08-20T22:13:17.688Z,20.61
2023-08-20T22:15:44.702Z,20.63
2023-08-20T22:18:13.556Z,20.61
2023-08-20T22:20:42.735Z,20.58
2023-08-20T22:23:09.368Z,20.58
2023-08-20T22:25:36.080Z,20.52
2023-08-20T22:28:02.894Z,20.48
2023-08-20T22:30:29.561Z,20.43
2023-08-20T22:32:58.776Z,20.39
2023-08-20T22:35:27.645Z,20.41
2023-08-20T22:38:08.462Z,20.34
2023-08-20T22:40:37.210Z,20.32
2023-08-20T22:43:04.656Z,20.37
2023-08-20T22:45:31.429Z,20.46
2023-08-20T22:47:59.775Z,20.55
2023-08-20T22:50:27.625Z,20.59
2023-08-20T22:53:02.049Z,20.62
2023-08-20T22:55:30.332Z,20.64
2023-08-20T22:57:59.633Z,20.66
2023-08-20T23:00:26.543Z,20.66
2023-08-20T23:02:53.279Z,20.66
2023-08-20T23:05:19.999Z,20.67
2023-08-20T23:07:46.766Z,20.65
2023-08-20T23:10:13.365Z,20.64
2023-08-20T23:12:40.343Z,20.64
2023-08-20T23:15:07.690Z,20.62
2023-08-20T23:17:42.112Z,20.60
2023-08-20T23:20:09.545Z,20.57
2023-08-20T23:22:38.992Z,20.57
2023-08-20T23:25:06.043Z,20.56
2023-08-20T23:27:35.435Z,20.56
2023-08-20T23:30:02.475Z,20.55
2023-08-20T23:32:31.404Z,20.54
2023-08-20T23:34:58.084Z,20.54
2023-08-20T23:37:24.783Z,20.52
2023-08-20T23:39:51.452Z,20.52
2023-08-20T23:42:20.307Z,20.51
2023-08-20T23:44:47.042Z,20.49
2023-08-20T23:47:16.001Z,20.49
2023-08-20T23:49:42.700Z,20.49
2023-08-20T23:52:09.507Z,20.48
2023-08-20T23:54:36.168Z,20.48
2023-08-20T23:57:02.836Z,20.47
2023-08-20T23:59:31.258Z,20.46
